Time;durP1;ratioP1;P1;durP2;ratioP2;P2;SDS_P1;SDS_P2;PMS_P1;PMS_P2;Temp;Humidity;BMP_temperature;BMP_pressure;BME280_temperature;BME280_humidity;BME280_pressure;Samples;Min_cycle;Max_cycle;Signal;HPM_P1;HPM_P2
2021/08/31 00:02:07;;;;;;;4.25;3.47;;;16.80;84.30;;;;;;4996196;28;20030;-64
2021/08/31 00:04:32;;;;;;;4.60;4.18;;;16.90;84.40;;;;;;5004016;28;20424;-64
2021/08/31 00:06:58;;;;;;;3.92;3.53;;;16.80;84.30;;;;;;4995403;28;20037;-64
2021/08/31 00:09:24;;;;;;;4.13;3.72;;;16.80;84.30;;;;;;5001963;28;20517;-63
2021/08/31 00:11:50;;;;;;;3.90;3.60;;;16.90;84.30;;;;;;4998872;28;20133;-64
2021/08/31 00:14:16;;;;;;;4.00;3.70;;;16.90;84.30;;;;;;4995660;28;20022;-64
2021/08/31 00:16:42;;;;;;;6.72;3.72;;;16.90;84.20;;;;;;4998703;28;20092;-63
2021/08/31 00:19:08;;;;;;;4.38;3.67;;;16.90;84.10;;;;;;4992529;28;20871;-63
2021/08/31 00:21:34;;;;;;;4.72;3.70;;;16.90;84.10;;;;;;4997542;28;20046;-64
2021/08/31 00:23:59;;;;;;;3.85;3.47;;;16.90;84.80;;;;;;5002888;28;20405;-64
2021/08/31 00:26:25;;;;;;;3.53;3.22;;;16.90;84.00;;;;;;5003948;28;20528;-63
2021/08/31 00:28:51;;;;;;;3.83;3.53;;;16.90;84.00;;;;;;5002717;28;20042;-64
2021/08/31 00:31:16;;;;;;;3.60;3.30;;;16.90;83.90;;;;;;5004637;28;20456;-63
2021/08/31 00:33:42;;;;;;;4.03;3.63;;;16.90;83.80;;;;;;5006653;28;20108;-63
2021/08/31 00:36:08;;;;;;;4.78;3.80;;;16.90;83.80;;;;;;5008833;28;20030;-64
2021/08/31 00:38:33;;;;;;;4.30;3.90;;;16.90;83.80;;;;;;5006838;28;20038;-63
2021/08/31 00:40:59;;;;;;;4.88;3.63;;;17.00;83.80;;;;;;4996505;28;20034;-67
2021/08/31 00:43:25;;;;;;;4.03;3.72;;;16.90;83.70;;;;;;4995691;28;20030;-64
2021/08/31 00:45:51;;;;;;;3.78;3.30;;;16.90;83.70;;;;;;5001537;28;20116;-64
2021/08/31 00:48:20;;;;;;;4.32;3.80;;;16.90;83.80;;;;;;5001108;28;20029;-64
2021/08/31 00:50:47;;;;;;;5.78;3.88;;;16.90;83.70;;;;;;4994256;28;20057;-64
2021/08/31 00:53:13;;;;;;;3.65;3.35;;;16.90;83.70;;;;;;4994657;28;20642;-64
2021/08/31 00:55:39;;;;;;;4.28;3.67;;;16.90;83.60;;;;;;4995663;28;20146;-64
2021/08/31 00:58:05;;;;;;;4.82;3.85;;;17.00;83.80;;;;;;4996314;28;20108;-63
2021/08/31 01:00:30;;;;;;;5.85;3.70;;;16.90;83.60;;;;;;4995185;28;20100;-64
2021/08/31 01:02:56;;;;;;;4.00;3.70;;;16.90;83.60;;;;;;4999629;28;20052;-63
2021/08/31 01:05:22;;;;;;;4.53;4.13;;;16.90;84.30;;;;;;4994200;28;20042;-63
2021/08/31 01:07:48;;;;;;;4.25;3.85;;;16.90;83.40;;;;;;4997148;28;20034;-63
2021/08/31 01:10:15;;;;;;;4.88;3.92;;;16.90;83.50;;;;;;4997847;28;20062;-63
2021/08/31 01:12:43;;;;;;;4.72;4.18;;;16.90;83.60;;;;;;4998082;28;20505;-64
2021/08/31 01:15:11;;;;;;;4.63;4.22;;;16.90;83.60;;;;;;4996354;28;20042;-64
2021/08/31 01:17:37;;;;;;;4.82;4.38;;;16.90;83.60;;;;;;5002514;28;20038;-64
2021/08/31 01:20:03;;;;;;;4.50;4.10;;;16.90;83.60;;;;;;4996988;28;20049;-64
2021/08/31 01:22:29;;;;;;;4.60;4.20;;;16.90;83.70;;;;;;4995325;28;20050;-64
2021/08/31 01:24:56;;;;;;;5.10;4.55;;;16.90;83.70;;;;;;4994105;28;20401;-64
2021/08/31 01:27:22;;;;;;;4.32;3.92;;;16.90;83.80;;;;;;4997039;28;20038;-64
2021/08/31 01:29:49;;;;;;;4.85;4.35;;;16.90;83.80;;;;;;4996470;28;20073;-64
2021/08/31 01:32:15;;;;;;;5.00;4.50;;;16.90;83.80;;;;;;5002662;28;20042;-64
2021/08/31 01:34:40;;;;;;;4.75;4.22;;;16.90;83.90;;;;;;4994523;28;20141;-63
2021/08/31 01:37:10;;;;;;;5.22;4.72;;;16.90;83.80;;;;;;4998537;28;20570;-63
2021/08/31 01:39:35;;;;;;;5.25;4.75;;;16.90;83.80;;;;;;4997396;28;20061;-64
2021/08/31 01:42:01;;;;;;;4.75;4.30;;;16.90;83.80;;;;;;5003426;28;20068;-64
2021/08/31 01:44:27;;;;;;;4.78;4.35;;;16.90;83.80;;;;;;4999780;28;20049;-63
2021/08/31 01:46:52;;;;;;;5.18;4.65;;;16.90;83.80;;;;;;5001329;28;20041;-63
2021/08/31 01:49:18;;;;;;;5.03;4.53;;;16.90;83.80;;;;;;4998017;28;20064;-64
2021/08/31 01:51:44;;;;;;;4.50;4.10;;;16.90;83.80;;;;;;4997116;28;20053;-64
2021/08/31 01:54:10;;;;;;;5.57;4.93;;;16.90;83.80;;;;;;5014589;28;20117;-63
2021/08/31 01:56:35;;;;;;;5.85;5.25;;;16.90;83.80;;;;;;4998371;28;20444;-64
2021/08/31 01:59:01;;;;;;;7.18;5.57;;;16.90;83.80;;;;;;5002747;28;20038;-64
2021/08/31 02:01:27;;;;;;;6.60;5.05;;;16.90;83.80;;;;;;5000952;28;20022;-64
2021/08/31 02:03:52;;;;;;;8.90;5.68;;;16.90;83.70;;;;;;4998889;28;20038;-63
2021/08/31 02:06:18;;;;;;;6.70;5.38;;;16.90;83.80;;;;;;4995209;28;21546;-64
2021/08/31 02:08:44;;;;;;;8.95;6.13;;;16.90;83.60;;;;;;5012150;28;20038;-63
2021/08/31 02:11:09;;;;;;;6.75;6.10;;;16.90;83.60;;;;;;4992737;28;20045;-64
2021/08/31 02:13:35;;;;;;;6.22;5.50;;;16.80;83.60;;;;;;4994770;28;20030;-63
2021/08/31 02:16:00;;;;;;;6.43;5.82;;;16.80;83.80;;;;;;4994761;28;20624;-63
2021/08/31 02:18:26;;;;;;;6.47;5.88;;;16.70;84.00;;;;;;5001702;28;20037;-64
2021/08/31 02:20:51;;;;;;;6.35;5.75;;;16.70;84.10;;;;;;4994849;28;20240;-63
2021/08/31 02:23:17;;;;;;;8.88;6.00;;;16.70;84.30;;;;;;4994419;28;20044;-64
2021/08/31 02:25:43;;;;;;;7.90;5.88;;;16.70;84.50;;;;;;5005473;28;20514;-64
2021/08/31 02:28:08;;;;;;;7.10;6.40;;;16.60;84.50;;;;;;5004644;28;20081;-64
2021/08/31 02:30:34;;;;;;;7.25;6.32;;;16.60;84.50;;;;;;4994733;28;20050;-64
2021/08/31 02:33:02;;;;;;;7.57;6.53;;;16.60;84.40;;;;;;4998236;28;20556;-63
2021/08/31 02:35:29;;;;;;;6.75;6.05;;;16.60;84.30;;;;;;4999149;28;20040;-64
2021/08/31 02:37:55;;;;;;;6.07;5.47;;;16.60;84.40;;;;;;4998053;28;20022;-64
2021/08/31 02:40:21;;;;;;;8.00;5.93;;;16.60;84.50;;;;;;4993973;28;20049;-64
2021/08/31 02:42:47;;;;;;;6.38;5.78;;;16.60;84.60;;;;;;4995205;28;20038;-64
2021/08/31 02:45:13;;;;;;;7.55;6.43;;;16.60;84.60;;;;;;4993704;28;20042;-64
2021/08/31 02:47:38;;;;;;;7.03;6.30;;;16.60;84.60;;;;;;4993353;28;20041;-65
2021/08/31 02:50:05;;;;;;;6.75;6.05;;;16.60;84.60;;;;;;5000580;28;20034;-63
2021/08/31 02:52:31;;;;;;;7.00;6.35;;;16.60;84.60;;;;;;4996922;28;20441;-64
2021/08/31 02:54:56;;;;;;;6.85;5.80;;;16.60;84.60;;;;;;4996861;28;20037;-64
2021/08/31 02:57:22;;;;;;;6.82;6.13;;;16.60;84.50;;;;;;4994105;28;20096;-64
2021/08/31 02:59:48;;;;;;;6.60;5.93;;;16.60;84.70;;;;;;4995448;28;20038;-63
2021/08/31 03:02:13;;;;;;;7.68;6.10;;;16.60;84.80;;;;;;4992702;28;20612;-64
2021/08/31 03:04:42;;;;;;;7.80;6.53;;;16.60;84.60;;;;;;4996603;28;20034;-64
2021/08/31 03:07:11;;;;;;;7.10;6.18;;;16.60;84.50;;;;;;4995831;28;20876;-64
2021/08/31 03:09:37;;;;;;;6.65;5.95;;;16.60;84.50;;;;;;4999284;28;20124;-64
2021/08/31 03:12:03;;;;;;;6.57;5.95;;;16.70;84.40;;;;;;4998139;28;20034;-61
2021/08/31 03:14:30;;;;;;;6.45;5.82;;;16.70;84.40;;;;;;4992420;28;20050;-63
2021/08/31 03:16:56;;;;;;;5.95;5.35;;;16.70;84.30;;;;;;4992545;28;20526;-64
2021/08/31 03:19:26;;;;;;;7.00;6.05;;;16.70;84.40;;;;;;4997969;28;20096;-64
2021/08/31 03:21:53;;;;;;;8.88;6.55;;;16.70;84.40;;;;;;4998378;28;20125;-64
2021/08/31 03:24:19;;;;;;;7.07;6.38;;;16.70;84.20;;;;;;4994347;28;20099;-64
2021/08/31 03:26:45;;;;;;;6.88;6.15;;;16.70;84.20;;;;;;4993325;28;20046;-64
2021/08/31 03:29:11;;;;;;;9.30;6.38;;;16.70;84.10;;;;;;4996271;28;20405;-64
2021/08/31 03:31:36;;;;;;;6.40;5.80;;;16.70;84.10;;;;;;4993284;28;20030;-64
2021/08/31 03:34:02;;;;;;;7.75;5.93;;;16.70;84.00;;;;;;4991930;28;20058;-65
2021/08/31 03:36:28;;;;;;;7.88;6.50;;;16.70;85.00;;;;;;4998580;28;20065;-63
2021/08/31 03:38:53;;;;;;;7.05;6.35;;;16.70;84.10;;;;;;4992409;28;20038;-64
2021/08/31 03:41:19;;;;;;;7.40;6.57;;;16.70;84.00;;;;;;4993479;28;20026;-63
2021/08/31 03:43:46;;;;;;;7.43;6.70;;;16.70;84.10;;;;;;4994294;28;20628;-64
2021/08/31 03:46:11;;;;;;;7.25;6.40;;;16.70;84.10;;;;;;4992785;28;20418;-64
2021/08/31 03:48:37;;;;;;;7.57;6.80;;;16.70;84.30;;;;;;4992248;28;20037;-63
2021/08/31 03:51:03;;;;;;;7.53;6.72;;;16.60;84.30;;;;;;5001327;28;20484;-64
2021/08/31 03:53:28;;;;;;;7.78;6.60;;;16.60;84.40;;;;;;4997142;28;20490;-64
2021/08/31 03:55:54;;;;;;;7.88;6.63;;;16.60;84.50;;;;;;4996807;28;20541;-64
2021/08/31 03:58:19;;;;;;;7.85;7.05;;;16.50;84.50;;;;;;5002850;28;20041;-64
2021/08/31 04:00:45;;;;;;;9.70;7.07;;;16.60;84.70;;;;;;4996266;28;20511;-64
2021/08/31 04:03:11;;;;;;;7.47;6.60;;;16.50;84.70;;;;;;4997342;28;20038;-64
2021/08/31 04:05:36;;;;;;;7.75;6.38;;;16.50;84.70;;;;;;5000643;28;20458;-64
2021/08/31 04:08:02;;;;;;;7.40;6.28;;;16.50;84.70;;;;;;5000748;28;20349;-64
2021/08/31 04:10:28;;;;;;;6.60;6.00;;;16.50;84.80;;;;;;4993535;28;20387;-64
2021/08/31 04:12:53;;;;;;;7.90;6.60;;;16.40;84.80;;;;;;4997267;28;20120;-64
2021/08/31 04:15:19;;;;;;;8.20;6.85;;;16.50;85.00;;;;;;4998556;28;20067;-64
2021/08/31 04:17:44;;;;;;;6.55;5.88;;;16.50;85.00;;;;;;5003105;28;20517;-64
2021/08/31 04:20:11;;;;;;;8.38;7.13;;;16.50;85.00;;;;;;4997951;28;20509;-64
2021/08/31 04:22:36;;;;;;;10.63;6.88;;;16.50;84.80;;;;;;4998836;28;20042;-63
2021/08/31 04:25:03;;;;;;;7.57;6.85;;;16.50;84.80;;;;;;4994424;28;20030;-64
2021/08/31 04:27:29;;;;;;;8.73;6.53;;;16.50;84.80;;;;;;4993744;28;20049;-63
2021/08/31 04:29:55;;;;;;;8.43;6.78;;;16.60;84.80;;;;;;4995423;28;20046;-64
2021/08/31 04:32:20;;;;;;;6.47;5.88;;;16.60;84.60;;;;;;4998195;28;20124;-65
2021/08/31 04:34:47;;;;;;;6.93;6.30;;;16.60;84.30;;;;;;5002194;28;20049;-64
2021/08/31 04:37:12;;;;;;;6.90;5.93;;;16.60;84.10;;;;;;4999731;28;20030;-64
2021/08/31 04:39:38;;;;;;;6.20;5.60;;;16.50;83.80;;;;;;5000725;28;20041;-63
2021/08/31 04:42:06;;;;;;;8.15;5.80;;;16.60;83.60;;;;;;5006085;28;20030;-64
2021/08/31 04:44:32;;;;;;;6.28;5.63;;;16.50;83.50;;;;;;5002957;28;20034;-63
2021/08/31 04:46:58;;;;;;;8.25;6.10;;;16.50;83.40;;;;;;5002376;28;20053;-64
2021/08/31 04:49:24;;;;;;;7.10;6.40;;;16.50;83.50;;;;;;5002821;28;20038;-64
2021/08/31 04:51:50;;;;;;;6.55;5.95;;;16.40;83.60;;;;;;4998010;28;20389;-64
2021/08/31 04:54:16;;;;;;;6.75;6.03;;;16.30;83.60;;;;;;5000142;28;20202;-64
2021/08/31 04:56:42;;;;;;;6.18;5.57;;;16.30;83.80;;;;;;5003434;28;20967;-63
2021/08/31 04:59:07;;;;;;;6.90;6.20;;;16.20;83.80;;;;;;5003194;28;20045;-64
2021/08/31 05:01:33;;;;;;;7.95;6.13;;;16.20;83.80;;;;;;5005460;28;20524;-64
2021/08/31 05:03:58;;;;;;;5.97;5.43;;;16.20;84.00;;;;;;5003315;28;20038;-64
2021/08/31 05:06:24;;;;;;;6.70;6.00;;;16.10;84.00;;;;;;5001304;28;20402;-64
2021/08/31 05:08:50;;;;;;;6.82;6.13;;;16.10;84.10;;;;;;5001236;28;20393;-63
2021/08/31 05:11:16;;;;;;;7.78;6.57;;;16.00;84.30;;;;;;4994996;28;20057;-64
2021/08/31 05:13:42;;;;;;;7.90;6.57;;;16.00;84.50;;;;;;5005429;28;20135;-64
2021/08/31 05:16:14;;;;;;;7.75;6.85;;;16.00;84.70;;;;;;5007412;28;20026;-63
2021/08/31 05:18:40;;;;;;;8.10;6.78;;;16.00;85.20;;;;;;5006162;28;20038;-63
2021/08/31 05:21:06;;;;;;;7.10;6.40;;;15.90;85.10;;;;;;5005331;28;20038;-64
2021/08/31 05:23:32;;;;;;;9.07;6.93;;;15.90;85.50;;;;;;5006291;28;20068;-63
2021/08/31 05:25:59;;;;;;;7.88;7.07;;;15.90;85.70;;;;;;5011176;28;20034;-63
2021/08/31 05:28:24;;;;;;;7.47;6.68;;;15.90;85.80;;;;;;5007596;28;20320;-64
2021/08/31 05:30:50;;;;;;;7.78;6.97;;;15.90;85.90;;;;;;5009227;28;20129;-64
2021/08/31 05:33:16;;;;;;;7.68;6.28;;;15.90;85.90;;;;;;5016767;28;20057;-64
2021/08/31 05:35:42;;;;;;;7.20;6.50;;;16.00;86.00;;;;;;5003840;28;20074;-63
2021/08/31 05:38:07;;;;;;;8.93;6.85;;;16.00;86.10;;;;;;5007482;28;20498;-64
2021/08/31 05:40:33;;;;;;;7.25;6.55;;;16.00;86.10;;;;;;5005105;28;20075;-64
2021/08/31 05:42:59;;;;;;;8.93;6.93;;;16.00;86.10;;;;;;5004384;28;20034;-63
2021/08/31 05:45:24;;;;;;;11.05;6.75;;;15.90;86.20;;;;;;5008336;28;20121;-63
2021/08/31 05:47:50;;;;;;;8.00;6.28;;;16.00;86.30;;;;;;5007408;28;20038;-64
2021/08/31 05:50:16;;;;;;;8.65;6.35;;;16.00;86.40;;;;;;5003201;28;20065;-64
2021/08/31 05:52:41;;;;;;;8.45;6.32;;;16.00;86.70;;;;;;5006900;28;20146;-64
2021/08/31 05:55:08;;;;;;;7.63;6.82;;;15.90;86.70;;;;;;5007718;28;20436;-64
2021/08/31 05:57:35;;;;;;;9.00;6.88;;;16.00;86.80;;;;;;5008246;28;20034;-64
2021/08/31 06:00:01;;;;;;;7.63;6.60;;;16.00;86.70;;;;;;5006818;28;20112;-64
2021/08/31 06:02:27;;;;;;;6.82;6.13;;;16.10;87.40;;;;;;5008393;28;20497;-64
2021/08/31 06:04:52;;;;;;;7.15;6.45;;;16.10;86.40;;;;;;5002277;28;20450;-64
2021/08/31 06:07:18;;;;;;;8.10;7.15;;;16.10;86.30;;;;;;5007401;28;20046;-64
2021/08/31 06:09:44;;;;;;;7.07;6.38;;;16.10;86.40;;;;;;5005969;28;20034;-64
2021/08/31 06:12:12;;;;;;;7.57;6.32;;;16.10;86.40;;;;;;5004695;28;20038;-63
2021/08/31 06:14:39;;;;;;;7.03;6.32;;;16.10;86.70;;;;;;5006534;28;20030;-64
2021/08/31 06:17:05;;;;;;;8.15;6.88;;;16.10;86.80;;;;;;5007928;28;20034;-64
2021/08/31 06:19:32;;;;;;;7.00;6.07;;;16.20;86.90;;;;;;5005602;28;20038;-63
2021/08/31 06:21:58;;;;;;;7.13;6.05;;;16.20;86.80;;;;;;5004701;28;20121;-64
2021/08/31 06:24:24;;;;;;;7.38;6.63;;;16.20;86.70;;;;;;5006733;28;20413;-64
2021/08/31 06:26:50;;;;;;;8.38;6.55;;;16.30;86.60;;;;;;5004782;28;20041;-64
2021/08/31 06:29:15;;;;;;;6.95;5.85;;;16.30;86.50;;;;;;5006793;28;20040;-64
2021/08/31 06:31:41;;;;;;;6.90;5.15;;;16.30;86.30;;;;;;5008681;28;20038;-64
2021/08/31 06:34:07;;;;;;;7.07;5.55;;;16.30;86.00;;;;;;5004725;28;20033;-64
2021/08/31 06:36:33;;;;;;;5.78;5.25;;;16.40;86.00;;;;;;5001510;28;20437;-64
2021/08/31 06:38:58;;;;;;;6.85;5.57;;;16.40;86.20;;;;;;5006819;28;20029;-64
2021/08/31 06:41:24;;;;;;;5.45;4.93;;;16.40;86.00;;;;;;5005608;28;20100;-64
2021/08/31 06:43:50;;;;;;;6.03;5.30;;;16.40;85.80;;;;;;5001387;28;20026;-65
2021/08/31 06:46:16;;;;;;;6.93;5.35;;;16.50;85.90;;;;;;5007430;28;20038;-64
2021/08/31 06:48:43;;;;;;;7.53;5.32;;;16.50;86.00;;;;;;5004267;28;20064;-64
2021/08/31 06:51:10;;;;;;;7.72;5.45;;;16.50;85.90;;;;;;4999744;28;20153;-64
2021/08/31 06:53:36;;;;;;;6.03;5.05;;;16.60;85.80;;;;;;5006196;28;20060;-64
2021/08/31 06:56:01;;;;;;;7.00;5.07;;;16.60;85.90;;;;;;5006633;28;20784;-62
2021/08/31 06:58:27;;;;;;;6.40;5.13;;;16.60;86.00;;;;;;5006032;28;20022;-64
2021/08/31 07:00:52;;;;;;;6.82;5.22;;;16.70;85.90;;;;;;5005083;28;20505;-64
2021/08/31 07:03:18;;;;;;;6.07;5.00;;;16.70;85.80;;;;;;5000348;28;20040;-64
2021/08/31 07:05:44;;;;;;;5.90;5.10;;;16.70;85.30;;;;;;5008103;28;20043;-64
2021/08/31 07:08:09;;;;;;;4.88;4.47;;;16.80;85.90;;;;;;5006401;28;20033;-64
2021/08/31 07:10:35;;;;;;;5.35;4.85;;;16.80;85.00;;;;;;5000013;28;20089;-64
2021/08/31 07:13:01;;;;;;;4.28;3.90;;;16.80;85.10;;;;;;5004299;28;20026;-64
2021/08/31 07:15:26;;;;;;;4.85;4.45;;;16.90;85.10;;;;;;5005726;28;20046;-64
2021/08/31 07:17:52;;;;;;;4.65;4.22;;;16.90;84.80;;;;;;5007439;28;20896;-64
2021/08/31 07:20:18;;;;;;;4.88;4.47;;;16.90;84.50;;;;;;5000530;28;20042;-64
2021/08/31 07:22:43;;;;;;;4.60;3.90;;;16.90;84.60;;;;;;5003239;28;20612;-64
2021/08/31 07:25:10;;;;;;;3.75;3.45;;;16.90;84.50;;;;;;5003828;28;20084;-64
2021/08/31 07:27:35;;;;;;;4.18;3.05;;;16.90;84.10;;;;;;5001176;28;20054;-64
2021/08/31 07:30:01;;;;;;;2.10;1.90;;;16.90;83.90;;;;;;5007283;28;20176;-64
2021/08/31 07:32:26;;;;;;;1.58;1.42;;;16.80;83.90;;;;;;5004333;28;20061;-64
2021/08/31 07:34:52;;;;;;;1.67;1.58;;;16.70;83.70;;;;;;5004510;28;20397;-63
2021/08/31 07:37:18;;;;;;;1.77;1.50;;;16.70;83.60;;;;;;5001125;28;20117;-64
2021/08/31 07:39:44;;;;;;;1.50;1.40;;;16.60;84.00;;;;;;5006564;28;20058;-63
2021/08/31 07:42:10;;;;;;;1.70;1.60;;;16.60;84.50;;;;;;5000507;28;20447;-64
2021/08/31 07:44:36;;;;;;;1.45;1.35;;;16.60;84.50;;;;;;5002739;28;20041;-64
2021/08/31 07:47:02;;;;;;;1.88;1.60;;;16.60;84.60;;;;;;5006144;28;20042;-64
2021/08/31 07:49:28;;;;;;;2.08;1.63;;;16.50;84.80;;;;;;5002934;28;20171;-64
2021/08/31 07:51:54;;;;;;;1.50;1.35;;;16.50;84.80;;;;;;4999304;28;20030;-63
2021/08/31 07:54:20;;;;;;;2.58;2.38;;;16.50;85.40;;;;;;5003622;28;20022;-63
2021/08/31 07:56:46;;;;;;;3.17;2.38;;;16.50;85.70;;;;;;5000686;28;20857;-64
2021/08/31 07:59:12;;;;;;;3.58;2.95;;;16.60;85.90;;;;;;5002246;28;20108;-64
2021/08/31 08:01:38;;;;;;;4.72;3.17;;;16.60;86.00;;;;;;5005581;28;20136;-64
2021/08/31 08:04:03;;;;;;;4.25;3.50;;;16.60;85.70;;;;;;5005370;28;20548;-64
2021/08/31 08:06:29;;;;;;;5.07;3.97;;;16.70;85.40;;;;;;5001761;28;20066;-63
2021/08/31 08:08:56;;;;;;;5.20;4.18;;;16.70;85.70;;;;;;5002727;28;20119;-63
2021/08/31 08:11:22;;;;;;;6.50;4.72;;;16.70;86.00;;;;;;4999068;28;20568;-63
2021/08/31 08:13:48;;;;;;;7.43;5.90;;;16.70;86.20;;;;;;4998419;28;20045;-63
2021/08/31 08:16:13;;;;;;;12.38;7.32;;;16.80;85.50;;;;;;5002566;28;20525;-63
2021/08/31 08:18:39;;;;;;;10.15;6.75;;;16.80;85.60;;;;;;5004468;28;20038;-64
2021/08/31 08:21:05;;;;;;;8.68;6.10;;;16.90;86.20;;;;;;4998996;28;20552;-64
2021/08/31 08:23:31;;;;;;;11.40;7.75;;;16.90;86.20;;;;;;4998381;28;20053;-64
2021/08/31 08:25:57;;;;;;;11.88;7.03;;;17.00;86.30;;;;;;5005216;28;20256;-64
2021/08/31 08:28:23;;;;;;;9.02;6.22;;;17.10;86.00;;;;;;5003887;28;20038;-64
2021/08/31 08:30:51;;;;;;;8.23;6.30;;;17.10;85.30;;;;;;5001598;28;20038;-64
2021/08/31 08:33:17;;;;;;;5.85;5.00;;;17.20;85.50;;;;;;5005385;28;20030;-64
2021/08/31 08:35:42;;;;;;;6.25;4.80;;;17.30;84.80;;;;;;4997886;28;20038;-64
2021/08/31 08:38:08;;;;;;;7.25;4.55;;;17.30;85.00;;;;;;5003927;28;20037;-64
2021/08/31 08:40:35;;;;;;;6.40;4.47;;;17.40;84.30;;;;;;5004499;28;20030;-64
2021/08/31 08:43:05;;;;;;;5.30;3.83;;;17.40;84.00;;;;;;5003062;28;20042;-64
2021/08/31 08:45:32;;;;;;;5.50;4.07;;;17.50;83.50;;;;;;5000589;28;20038;-64
2021/08/31 08:47:58;;;;;;;5.05;4.10;;;17.60;84.30;;;;;;5006032;28;20041;-64
2021/08/31 08:50:24;;;;;;;5.55;4.40;;;17.70;84.10;;;;;;5003762;28;20453;-63
2021/08/31 08:52:49;;;;;;;6.60;4.30;;;17.80;83.20;;;;;;5006417;28;20030;-63
2021/08/31 08:55:16;;;;;;;8.52;4.95;;;17.80;83.00;;;;;;5007270;28;20153;-64
2021/08/31 08:57:41;;;;;;;6.93;4.30;;;17.80;83.50;;;;;;5010240;28;20045;-64
2021/08/31 09:00:10;;;;;;;5.78;4.30;;;17.90;82.50;;;;;;5004036;28;20046;-65
2021/08/31 09:02:38;;;;;;;7.60;5.50;;;17.90;82.00;;;;;;5003782;28;20042;-64
2021/08/31 09:05:30;;;;;;;7.68;5.15;;;17.90;81.60;;;;;;5007581;28;20038;-65
2021/08/31 09:08:06;;;;;;;8.20;5.38;;;17.90;82.20;;;;;;5009024;28;20429;-64
2021/08/31 09:10:33;;;;;;;6.20;5.32;;;17.90;82.20;;;;;;4997938;28;20394;-64
2021/08/31 09:12:59;;;;;;;5.13;4.60;;;17.90;82.50;;;;;;5007537;28;20058;-64
2021/08/31 09:15:36;;;;;;;4.70;4.18;;;17.90;82.10;;;;;;5004750;28;20023;-64
2021/08/31 09:18:04;;;;;;;5.25;4.10;;;17.90;81.90;;;;;;5006240;28;20037;-64
2021/08/31 09:20:31;;;;;;;4.68;4.18;;;17.90;81.60;;;;;;5002683;28;20087;-63
2021/08/31 09:22:57;;;;;;;4.50;4.10;;;17.80;81.20;;;;;;5002868;28;20527;-64
2021/08/31 09:25:43;;;;;;;4.35;3.70;;;17.80;81.00;;;;;;5005665;28;20440;-64
2021/08/31 09:28:32;;;;;;;3.15;2.95;;;17.80;80.90;;;;;;5007407;28;20065;-64
2021/08/31 09:31:00;;;;;;;3.10;2.90;;;17.80;81.10;;;;;;5003555;28;20053;-64
2021/08/31 09:33:29;;;;;;;3.25;3.00;;;17.80;81.30;;;;;;5004201;28;20030;-64
2021/08/31 09:36:09;;;;;;;2.92;2.72;;;17.70;81.50;;;;;;5002072;28;20117;-64
2021/08/31 09:39:06;;;;;;;2.75;2.55;;;17.70;81.50;;;;;;5006730;28;20093;-64
2021/08/31 09:41:43;;;;;;;3.30;3.00;;;17.70;81.90;;;;;;5003138;28;20449;-64
2021/08/31 09:44:19;;;;;;;3.22;2.92;;;17.70;82.40;;;;;;5006346;28;20410;-64
2021/08/31 09:46:55;;;;;;;3.08;2.88;;;17.70;82.20;;;;;;5004597;28;20117;-64
2021/08/31 09:49:29;;;;;;;3.40;3.05;;;17.70;82.40;;;;;;5007351;28;20428;-64
2021/08/31 09:52:03;;;;;;;4.15;3.42;;;17.70;82.40;;;;;;5003258;28;20048;-64
2021/08/31 09:54:30;;;;;;;3.83;3.53;;;17.70;83.10;;;;;;5005611;28;20038;-65
2021/08/31 09:56:56;;;;;;;4.07;3.67;;;17.70;83.30;;;;;;5004951;28;20169;-64
2021/08/31 09:59:23;;;;;;;3.75;3.42;;;17.80;83.50;;;;;;5003393;28;20113;-63
2021/08/31 10:01:52;;;;;;;3.15;2.92;;;17.80;83.10;;;;;;5002245;28;20113;-63
2021/08/31 10:04:18;;;;;;;3.60;3.30;;;17.80;83.40;;;;;;5004084;28;20026;-64
2021/08/31 10:06:44;;;;;;;3.70;3.40;;;17.90;83.20;;;;;;5008291;28;20044;-64
2021/08/31 10:09:10;;;;;;;4.28;3.10;;;17.90;82.90;;;;;;5005494;28;20025;-65
2021/08/31 10:11:37;;;;;;;3.17;2.80;;;18.00;82.80;;;;;;5004841;28;20073;-64
2021/08/31 10:14:03;;;;;;;3.33;3.03;;;18.00;82.90;;;;;;5003422;28;20464;-65
2021/08/31 10:16:31;;;;;;;5.47;3.05;;;18.10;82.80;;;;;;5000151;28;20461;-64
2021/08/31 10:18:57;;;;;;;3.88;2.80;;;18.10;82.30;;;;;;5002819;28;20038;-64
2021/08/31 10:21:24;;;;;;;3.10;2.70;;;18.20;81.80;;;;;;5000258;28;20038;-64
2021/08/31 10:23:51;;;;;;;2.50;2.30;;;18.20;80.20;;;;;;5004134;28;20030;-65
2021/08/31 10:26:22;;;;;;;3.72;2.97;;;18.20;80.30;;;;;;5006290;28;20034;-65
2021/08/31 10:29:11;;;;;;;3.17;2.78;;;18.20;80.10;;;;;;5004869;28;20819;-64
2021/08/31 10:31:37;;;;;;;3.03;2.78;;;18.30;79.40;;;;;;5007298;28;20578;-64
2021/08/31 10:34:31;;;;;;;2.97;2.78;;;18.30;79.40;;;;;;5004646;28;20127;-64
2021/08/31 10:37:04;;;;;;;3.40;2.80;;;18.30;75.90;;;;;;5002757;28;20034;-65
2021/08/31 10:39:54;;;;;;;2.50;2.30;;;18.30;78.20;;;;;;5005726;28;20034;-64
2021/08/31 10:42:28;;;;;;;3.13;2.65;;;18.40;79.10;;;;;;5005299;28;21282;-64
2021/08/31 10:45:06;;;;;;;2.65;2.45;;;18.40;78.70;;;;;;5007664;28;20037;-64
2021/08/31 10:47:32;;;;;;;2.92;2.40;;;18.50;78.70;;;;;;5005000;28;20034;-64
2021/08/31 10:49:57;;;;;;;2.83;2.55;;;18.50;79.10;;;;;;5001344;28;20030;-64
2021/08/31 10:52:43;;;;;;;2.70;2.50;;;18.60;78.50;;;;;;5001315;28;20440;-64
2021/08/31 10:55:24;;;;;;;3.17;2.92;;;18.60;77.90;;;;;;5005931;28;20085;-64
2021/08/31 10:57:54;;;;;;;2.63;2.42;;;18.70;75.70;;;;;;5003573;28;20030;-64
2021/08/31 11:00:19;;;;;;;2.95;2.65;;;18.70;77.30;;;;;;5002451;28;20030;-64
2021/08/31 11:02:48;;;;;;;4.70;3.85;;;18.70;77.30;;;;;;5003239;28;20041;-64
2021/08/31 11:05:26;;;;;;;4.20;3.17;;;18.80;77.80;;;;;;5005552;28;20413;-64
2021/08/31 11:07:59;;;;;;;3.08;2.88;;;18.90;78.40;;;;;;5007605;28;20387;-64
2021/08/31 11:10:32;;;;;;;3.22;2.85;;;19.00;78.00;;;;;;5003840;28;20030;-64
2021/08/31 11:13:08;;;;;;;2.83;2.63;;;19.10;77.90;;;;;;5004139;28;20034;-64
2021/08/31 11:15:34;;;;;;;2.72;2.53;;;19.20;76.10;;;;;;5006981;28;20030;-64
2021/08/31 11:17:59;;;;;;;2.80;2.60;;;19.30;76.50;;;;;;5004093;28;20049;-64
2021/08/31 11:20:29;;;;;;;2.85;2.50;;;19.30;76.80;;;;;;4998298;28;20044;-65
2021/08/31 11:23:03;;;;;;;2.78;2.13;;;19.40;76.60;;;;;;5001830;28;20052;-64
2021/08/31 11:25:39;;;;;;;2.63;2.42;;;19.40;76.30;;;;;;5002687;28;20030;-63
2021/08/31 11:28:15;;;;;;;2.50;2.30;;;19.50;75.70;;;;;;5006329;28;20404;-64
2021/08/31 11:30:50;;;;;;;2.35;2.15;;;19.50;75.50;;;;;;5006917;28;20084;-64
2021/08/31 11:33:29;;;;;;;3.35;2.15;;;19.50;74.90;;;;;;5001725;28;20393;-64
2021/08/31 11:36:16;;;;;;;2.78;2.35;;;19.50;73.90;;;;;;5001670;28;20060;-64
2021/08/31 11:38:54;;;;;;;2.95;2.70;;;19.50;73.70;;;;;;5003469;28;22373;-64
2021/08/31 11:41:27;;;;;;;2.65;2.45;;;19.50;74.20;;;;;;5005809;28;20030;-64
2021/08/31 11:43:55;;;;;;;4.38;2.83;;;19.50;74.30;;;;;;5002880;28;20593;-64
2021/08/31 11:46:30;;;;;;;3.28;2.97;;;19.50;74.50;;;;;;5005645;28;20391;-64
2021/08/31 11:49:17;;;;;;;4.45;3.10;;;19.40;73.40;;;;;;5004540;28;20413;-64
2021/08/31 11:52:01;;;;;;;3.10;2.80;;;19.40;73.70;;;;;;5000254;28;20116;-64
2021/08/31 11:54:33;;;;;;;3.45;3.15;;;19.30;74.70;;;;;;5004194;28;20072;-63
2021/08/31 11:57:01;;;;;;;3.45;3.03;;;19.20;74.40;;;;;;5005827;28;20030;-64
2021/08/31 11:59:43;;;;;;;3.00;2.72;;;19.10;74.20;;;;;;5004699;28;20185;-64
2021/08/31 12:02:11;;;;;;;3.30;3.00;;;19.00;73.40;;;;;;4997012;28;20169;-64
2021/08/31 12:04:37;;;;;;;3.03;2.83;;;18.90;74.20;;;;;;5005125;28;20042;-64
2021/08/31 12:07:03;;;;;;;3.20;2.80;;;18.80;74.70;;;;;;5001914;28;20040;-64
2021/08/31 12:09:31;;;;;;;3.20;2.90;;;18.70;75.30;;;;;;5005657;28;20068;-64
2021/08/31 12:11:57;;;;;;;3.00;2.80;;;18.70;75.60;;;;;;5000481;28;20066;-63
2021/08/31 12:14:22;;;;;;;3.28;2.88;;;18.70;75.90;;;;;;5005126;28;20595;-64
2021/08/31 12:16:49;;;;;;;3.70;2.80;;;18.60;76.80;;;;;;5002347;28;20038;-64
2021/08/31 12:19:20;;;;;;;3.42;2.97;;;18.60;75.50;;;;;;5005625;28;20026;-64
2021/08/31 12:22:03;;;;;;;3.20;2.95;;;18.60;75.60;;;;;;5001369;28;20088;-64
2021/08/31 12:24:29;;;;;;;4.25;3.10;;;18.50;75.40;;;;;;5001227;28;20041;-64
2021/08/31 12:27:05;;;;;;;3.15;2.75;;;18.50;75.60;;;;;;5002789;28;20030;-64
2021/08/31 12:30:03;;;;;;;3.78;2.80;;;18.50;75.10;;;;;;5020360;28;20047;-64
2021/08/31 12:32:31;;;;;;;6.05;3.10;;;18.50;74.90;;;;;;5001862;28;20034;-64
2021/08/31 12:35:25;;;;;;;3.35;3.05;;;18.50;75.00;;;;;;5000142;28;20394;-64
2021/08/31 12:38:07;;;;;;;2.95;2.75;;;18.40;74.80;;;;;;5001117;28;20121;-65
2021/08/31 12:40:36;;;;;;;2.97;2.78;;;18.40;74.00;;;;;;5001958;28;20033;-64
2021/08/31 12:43:08;;;;;;;3.90;3.38;;;18.40;75.00;;;;;;5005625;28;20068;-64
2021/08/31 12:45:34;;;;;;;5.38;3.53;;;18.30;75.30;;;;;;5004281;28;20514;-64
2021/08/31 12:48:02;;;;;;;3.55;3.25;;;18.30;75.80;;;;;;5005060;28;20045;-64
2021/08/31 12:50:28;;;;;;;3.40;3.13;;;18.30;76.10;;;;;;5004696;28;20035;-64